Livingston, Wisconsin
Current Conditions -  °F | °C
As of 7:35 AM on Saturday 20 Dec 2014 (Local Time) from KMRJ Reporting Station
Haze Haze  
Wind Chill: 28°   Ceiling: 2100
Heat Index: 28°   Visibility: 4mi
Dew Point: 27°   Wind: 3mph
Humidity: 93%   Direction: 130°SE
Pressure: 30.22"   Gusts: NA
Location:  42.9°N, 90.43°W
Report Text: KMRJ 201335Z AUTO 13003KT 4SM BR OVC021 M02/M03 A3022 RMK AO2
Loading
Personal Weather Stations






























Interactive Weather Map New forecast layout! Learn more

10-Day Weather Forecast

Advertisements
Track Severe Weather on mobile